sensor_id;sensor_type;location;lat;lon;timestamp;P1;durP1;ratioP1;P2;durP2;ratioP2
81330;SDS011;70793;53.076;8.822;2023-08-30T03:29:14;1.55;;;1.30;;
81330;SDS011;70793;53.076;8.822;2023-08-30T03:31:40;1.60;;;1.50;;
81330;SDS011;70793;53.076;8.822;2023-08-30T03:34:05;1.33;;;1.23;;
81330;SDS011;70793;53.076;8.822;2023-08-30T03:36:30;1.87;;;1.50;;
81330;SDS011;70793;53.076;8.822;2023-08-30T03:38:56;1.57;;;1.47;;
81330;SDS011;70793;53.076;8.822;2023-08-30T03:41:21;1.40;;;1.20;;
81330;SDS011;70793;53.076;8.822;2023-08-30T03:43:46;1.57;;;1.47;;
81330;SDS011;70793;53.076;8.822;2023-08-30T03:46:12;1.33;;;1.23;;
81330;SDS011;70793;53.076;8.822;2023-08-30T03:48:37;1.80;;;1.60;;
81330;SDS011;70793;53.076;8.822;2023-08-30T03:51:02;1.70;;;1.60;;
81330;SDS011;70793;53.076;8.822;2023-08-30T03:53:28;2.55;;;1.73;;
81330;SDS011;70793;53.076;8.822;2023-08-30T03:55:55;1.70;;;1.50;;
81330;SDS011;70793;53.076;8.822;2023-08-30T03:58:20;1.48;;;1.20;;
81330;SDS011;70793;53.076;8.822;2023-08-30T04:00:45;1.90;;;1.70;;
81330;SDS011;70793;53.076;8.822;2023-08-30T04:03:15;1.88;;;1.70;;
81330;SDS011;70793;53.076;8.822;2023-08-30T04:05:41;1.70;;;1.60;;
81330;SDS011;70793;53.076;8.822;2023-08-30T04:08:06;1.80;;;1.45;;
81330;SDS011;70793;53.076;8.822;2023-08-30T04:10:39;1.55;;;1.45;;
81330;SDS011;70793;53.076;8.822;2023-08-30T04:13:05;1.92;;;1.50;;
81330;SDS011;70793;53.076;8.822;2023-08-30T04:15:32;1.63;;;1.50;;
81330;SDS011;70793;53.076;8.822;2023-08-30T04:17:59;1.92;;;1.58;;
81330;SDS011;70793;53.076;8.822;2023-08-30T04:20:24;2.92;;;1.92;;
81330;SDS011;70793;53.076;8.822;2023-08-30T04:22:49;1.85;;;1.65;;
81330;SDS011;70793;53.076;8.822;2023-08-30T04:25:15;1.60;;;1.40;;
81330;SDS011;70793;53.076;8.822;2023-08-30T04:27:40;2.90;;;1.52;;
81330;SDS011;70793;53.076;8.822;2023-08-30T04:30:06;1.73;;;1.63;;
81330;SDS011;70793;53.076;8.822;2023-08-30T04:32:31;1.63;;;1.52;;
81330;SDS011;70793;53.076;8.822;2023-08-30T04:34:56;1.83;;;1.53;;
81330;SDS011;70793;53.076;8.822;2023-08-30T04:37:22;1.92;;;1.80;;
81330;SDS011;70793;53.076;8.822;2023-08-30T04:39:47;2.00;;;1.80;;
81330;SDS011;70793;53.076;8.822;2023-08-30T04:42:14;1.90;;;1.73;;
81330;SDS011;70793;53.076;8.822;2023-08-30T04:44:39;2.03;;;1.83;;
81330;SDS011;70793;53.076;8.822;2023-08-30T04:47:05;1.92;;;1.58;;
81330;SDS011;70793;53.076;8.822;2023-08-30T04:49:30;1.98;;;1.70;;
81330;SDS011;70793;53.076;8.822;2023-08-30T04:51:55;1.67;;;1.53;;
81330;SDS011;70793;53.076;8.822;2023-08-30T04:54:21;2.00;;;1.80;;
81330;SDS011;70793;53.076;8.822;2023-08-30T04:56:46;2.00;;;1.80;;
81330;SDS011;70793;53.076;8.822;2023-08-30T04:59:11;1.90;;;1.70;;
81330;SDS011;70793;53.076;8.822;2023-08-30T05:01:38;2.40;;;2.20;;
81330;SDS011;70793;53.076;8.822;2023-08-30T05:04:07;1.90;;;1.73;;
81330;SDS011;70793;53.076;8.822;2023-08-30T05:06:32;2.03;;;1.67;;
81330;SDS011;70793;53.076;8.822;2023-08-30T05:08:58;2.05;;;1.83;;
81330;SDS011;70793;53.076;8.822;2023-08-30T05:11:23;2.20;;;1.73;;
81330;SDS011;70793;53.076;8.822;2023-08-30T05:13:48;1.95;;;1.63;;
81330;SDS011;70793;53.076;8.822;2023-08-30T05:16:14;2.10;;;1.90;;
81330;SDS011;70793;53.076;8.822;2023-08-30T05:18:39;2.13;;;1.92;;
81330;SDS011;70793;53.076;8.822;2023-08-30T05:21:04;1.67;;;1.53;;
81330;SDS011;70793;53.076;8.822;2023-08-30T05:23:30;2.58;;;1.77;;
81330;SDS011;70793;53.076;8.822;2023-08-30T05:25:56;2.13;;;1.92;;
81330;SDS011;70793;53.076;8.822;2023-08-30T05:28:21;2.53;;;1.53;;
81330;SDS011;70793;53.076;8.822;2023-08-30T05:30:46;2.10;;;1.93;;
81330;SDS011;70793;53.076;8.822;2023-08-30T05:33:12;2.35;;;2.05;;
81330;SDS011;70793;53.076;8.822;2023-08-30T05:35:37;2.93;;;1.90;;
81330;SDS011;70793;53.076;8.822;2023-08-30T05:38:03;2.70;;;2.17;;
81330;SDS011;70793;53.076;8.822;2023-08-30T05:40:28;3.58;;;2.80;;
81330;SDS011;70793;53.076;8.822;2023-08-30T05:42:53;2.27;;;1.70;;
81330;SDS011;70793;53.076;8.822;2023-08-30T05:45:20;3.13;;;2.10;;
81330;SDS011;70793;53.076;8.822;2023-08-30T05:47:45;2.50;;;2.30;;
81330;SDS011;70793;53.076;8.822;2023-08-30T05:50:10;2.43;;;2.23;;
81330;SDS011;70793;53.076;8.822;2023-08-30T05:52:36;2.13;;;1.90;;
81330;SDS011;70793;53.076;8.822;2023-08-30T05:55:06;3.05;;;2.72;;
81330;SDS011;70793;53.076;8.822;2023-08-30T05:57:34;2.33;;;2.13;;
81330;SDS011;70793;53.076;8.822;2023-08-30T06:00:00;2.83;;;1.92;;
81330;SDS011;70793;53.076;8.822;2023-08-30T06:02:26;3.75;;;2.45;;
81330;SDS011;70793;53.076;8.822;2023-08-30T06:04:51;2.55;;;2.35;;
81330;SDS011;70793;53.076;8.822;2023-08-30T06:07:17;2.10;;;1.90;;
81330;SDS011;70793;53.076;8.822;2023-08-30T06:09:42;2.37;;;2.17;;
81330;SDS011;70793;53.076;8.822;2023-08-30T06:12:08;2.67;;;2.45;;
81330;SDS011;70793;53.076;8.822;2023-08-30T06:14:33;3.53;;;2.38;;
81330;SDS011;70793;53.076;8.822;2023-08-30T06:16:58;2.42;;;2.22;;
81330;SDS011;70793;53.076;8.822;2023-08-30T06:19:24;2.23;;;2.03;;
81330;SDS011;70793;53.076;8.822;2023-08-30T06:21:49;1.88;;;1.60;;
81330;SDS011;70793;53.076;8.822;2023-08-30T06:24:15;3.30;;;2.30;;
81330;SDS011;70793;53.076;8.822;2023-08-30T06:26:40;2.70;;;2.50;;
81330;SDS011;70793;53.076;8.822;2023-08-30T06:29:05;2.88;;;2.28;;
81330;SDS011;70793;53.076;8.822;2023-08-30T06:31:31;2.57;;;2.37;;
81330;SDS011;70793;53.076;8.822;2023-08-30T06:33:57;2.70;;;2.42;;
81330;SDS011;70793;53.076;8.822;2023-08-30T06:36:22;2.60;;;2.30;;
81330;SDS011;70793;53.076;8.822;2023-08-30T06:38:48;2.33;;;2.10;;
81330;SDS011;70793;53.076;8.822;2023-08-30T06:41:14;2.10;;;1.90;;
81330;SDS011;70793;53.076;8.822;2023-08-30T06:43:39;2.53;;;2.33;;
81330;SDS011;70793;53.076;8.822;2023-08-30T06:46:04;3.83;;;3.40;;
81330;SDS011;70793;53.076;8.822;2023-08-30T06:48:30;3.17;;;2.50;;
81330;SDS011;70793;53.076;8.822;2023-08-30T06:50:58;4.68;;;3.03;;
81330;SDS011;70793;53.076;8.822;2023-08-30T06:53:25;2.95;;;2.55;;
81330;SDS011;70793;53.076;8.822;2023-08-30T06:55:56;2.88;;;2.38;;
81330;SDS011;70793;53.076;8.822;2023-08-30T06:58:25;2.15;;;1.95;;
81330;SDS011;70793;53.076;8.822;2023-08-30T07:00:50;2.75;;;2.35;;
81330;SDS011;70793;53.076;8.822;2023-08-30T07:03:16;2.90;;;2.60;;
81330;SDS011;70793;53.076;8.822;2023-08-30T07:05:41;2.35;;;1.95;;
81330;SDS011;70793;53.076;8.822;2023-08-30T07:08:08;2.53;;;2.33;;
81330;SDS011;70793;53.076;8.822;2023-08-30T07:10:33;2.47;;;2.28;;
81330;SDS011;70793;53.076;8.822;2023-08-30T07:12:59;1.90;;;1.55;;
81330;SDS011;70793;53.076;8.822;2023-08-30T07:15:25;2.75;;;1.83;;
81330;SDS011;70793;53.076;8.822;2023-08-30T07:17:50;2.50;;;2.30;;
81330;SDS011;70793;53.076;8.822;2023-08-30T07:20:16;2.13;;;1.92;;
81330;SDS011;70793;53.076;8.822;2023-08-30T07:22:41;2.90;;;2.60;;
81330;SDS011;70793;53.076;8.822;2023-08-30T07:25:07;4.10;;;2.33;;
81330;SDS011;70793;53.076;8.822;2023-08-30T07:27:35;3.10;;;2.67;;
81330;SDS011;70793;53.076;8.822;2023-08-30T07:30:00;3.40;;;2.60;;
81330;SDS011;70793;53.076;8.822;2023-08-30T07:32:26;3.50;;;2.15;;
81330;SDS011;70793;53.076;8.822;2023-08-30T07:34:52;4.70;;;1.90;;
81330;SDS011;70793;53.076;8.822;2023-08-30T07:37:18;2.20;;;2.00;;
81330;SDS011;70793;53.076;8.822;2023-08-30T07:39:45;1.42;;;1.30;;
81330;SDS011;70793;53.076;8.822;2023-08-30T07:42:10;2.92;;;2.40;;
81330;SDS011;70793;53.076;8.822;2023-08-30T07:44:36;2.22;;;1.90;;
81330;SDS011;70793;53.076;8.822;2023-08-30T07:47:01;4.00;;;2.30;;
81330;SDS011;70793;53.076;8.822;2023-08-30T07:49:26;2.25;;;1.80;;
81330;SDS011;70793;53.076;8.822;2023-08-30T07:51:52;2.03;;;1.83;;
81330;SDS011;70793;53.076;8.822;2023-08-30T07:54:17;1.85;;;1.50;;
81330;SDS011;70793;53.076;8.822;2023-08-30T07:56:42;1.83;;;1.60;;
81330;SDS011;70793;53.076;8.822;2023-08-30T07:59:08;1.67;;;1.40;;
81330;SDS011;70793;53.076;8.822;2023-08-30T08:01:33;2.13;;;1.90;;
81330;SDS011;70793;53.076;8.822;2023-08-30T08:03:58;2.00;;;1.70;;
81330;SDS011;70793;53.076;8.822;2023-08-30T08:06:24;2.47;;;1.90;;
81330;SDS011;70793;53.076;8.822;2023-08-30T08:08:49;2.20;;;1.73;;
81330;SDS011;70793;53.076;8.822;2023-08-30T08:11:15;2.10;;;1.90;;
81330;SDS011;70793;53.076;8.822;2023-08-30T08:13:40;2.00;;;1.80;;
81330;SDS011;70793;53.076;8.822;2023-08-30T08:16:06;1.90;;;1.70;;
81330;SDS011;70793;53.076;8.822;2023-08-30T08:18:32;2.38;;;1.58;;
81330;SDS011;70793;53.076;8.822;2023-08-30T08:20:57;2.20;;;1.70;;
81330;SDS011;70793;53.076;8.822;2023-08-30T08:23:23;1.85;;;1.52;;
81330;SDS011;70793;53.076;8.822;2023-08-30T08:25:48;2.30;;;1.52;;
81330;SDS011;70793;53.076;8.822;2023-08-30T08:28:13;1.80;;;1.60;;
81330;SDS011;70793;53.076;8.822;2023-08-30T08:30:39;1.83;;;1.50;;
81330;SDS011;70793;53.076;8.822;2023-08-30T08:33:04;1.65;;;1.38;;
81330;SDS011;70793;53.076;8.822;2023-08-30T08:35:29;1.87;;;1.47;;
81330;SDS011;70793;53.076;8.822;2023-08-30T08:37:55;1.83;;;1.63;;
81330;SDS011;70793;53.076;8.822;2023-08-30T08:40:20;1.48;;;1.38;;
81330;SDS011;70793;53.076;8.822;2023-08-30T08:42:45;2.30;;;1.70;;
81330;SDS011;70793;53.076;8.822;2023-08-30T08:45:12;1.85;;;1.52;;
81330;SDS011;70793;53.076;8.822;2023-08-30T08:47:38;1.55;;;1.45;;
81330;SDS011;70793;53.076;8.822;2023-08-30T08:50:04;1.85;;;1.40;;
81330;SDS011;70793;53.076;8.822;2023-08-30T08:52:30;1.52;;;1.42;;
81330;SDS011;70793;53.076;8.822;2023-08-30T08:54:56;2.38;;;1.45;;
81330;SDS011;70793;53.076;8.822;2023-08-30T08:57:21;2.10;;;1.55;;
81330;SDS011;70793;53.076;8.822;2023-08-30T08:59:47;1.70;;;1.48;;
81330;SDS011;70793;53.076;8.822;2023-08-30T09:02:13;2.55;;;1.60;;
81330;SDS011;70793;53.076;8.822;2023-08-30T09:04:39;1.75;;;1.20;;
81330;SDS011;70793;53.076;8.822;2023-08-30T09:07:05;1.58;;;1.15;;
81330;SDS011;70793;53.076;8.822;2023-08-30T09:09:30;1.40;;;1.20;;
81330;SDS011;70793;53.076;8.822;2023-08-30T09:11:56;1.67;;;1.27;;
81330;SDS011;70793;53.076;8.822;2023-08-30T09:14:21;1.60;;;1.40;;
81330;SDS011;70793;53.076;8.822;2023-08-30T09:19:22;2.67;;;1.35;;
81330;SDS011;70793;53.076;8.822;2023-08-30T09:21:51;1.63;;;1.15;;
81330;SDS011;70793;53.076;8.822;2023-08-30T09:24:19;2.78;;;1.20;;
81330;SDS011;70793;53.076;8.822;2023-08-30T09:26:54;2.15;;;1.50;;
81330;SDS011;70793;53.076;8.822;2023-08-30T09:29:21;1.90;;;1.50;;
81330;SDS011;70793;53.076;8.822;2023-08-30T09:31:50;1.67;;;1.38;;
81330;SDS011;70793;53.076;8.822;2023-08-30T09:34:21;2.05;;;1.48;;
81330;SDS011;70793;53.076;8.822;2023-08-30T09:36:50;1.88;;;1.40;;
81330;SDS011;70793;53.076;8.822;2023-08-30T09:39:16;3.25;;;1.20;;
81330;SDS011;70793;53.076;8.822;2023-08-30T09:41:42;1.90;;;1.30;;
81330;SDS011;70793;53.076;8.822;2023-08-30T09:44:09;1.80;;;1.45;;
81330;SDS011;70793;53.076;8.822;2023-08-30T09:49:07;3.00;;;2.20;;
81330;SDS011;70793;53.076;8.822;2023-08-30T09:51:34;2.13;;;1.48;;
81330;SDS011;70793;53.076;8.822;2023-08-30T09:54:01;3.92;;;2.33;;
81330;SDS011;70793;53.076;8.822;2023-08-30T09:56:30;2.63;;;1.65;;
81330;SDS011;70793;53.076;8.822;2023-08-30T09:58:56;3.90;;;2.28;;
81330;SDS011;70793;53.076;8.822;2023-08-30T10:01:25;1.92;;;1.50;;
81330;SDS011;70793;53.076;8.822;2023-08-30T10:03:51;3.55;;;2.40;;
81330;SDS011;70793;53.076;8.822;2023-08-30T10:06:16;2.90;;;2.38;;
81330;SDS011;70793;53.076;8.822;2023-08-30T10:08:42;3.55;;;2.42;;
81330;SDS011;70793;53.076;8.822;2023-08-30T10:11:09;2.83;;;1.90;;
81330;SDS011;70793;53.076;8.822;2023-08-30T10:13:35;1.88;;;1.58;;
81330;SDS011;70793;53.076;8.822;2023-08-30T10:16:01;2.30;;;2.10;;
81330;SDS011;70793;53.076;8.822;2023-08-30T10:18:29;2.38;;;2.15;;
81330;SDS011;70793;53.076;8.822;2023-08-30T10:20:57;3.08;;;2.22;;
81330;SDS011;70793;53.076;8.822;2023-08-30T10:23:24;2.70;;;2.00;;
81330;SDS011;70793;53.076;8.822;2023-08-30T10:25:50;3.05;;;2.53;;
81330;SDS011;70793;53.076;8.822;2023-08-30T10:28:18;3.88;;;3.05;;
81330;SDS011;70793;53.076;8.822;2023-08-30T10:30:45;3.58;;;2.05;;
81330;SDS011;70793;53.076;8.822;2023-08-30T10:33:13;3.13;;;1.90;;
81330;SDS011;70793;53.076;8.822;2023-08-30T10:35:49;2.80;;;2.25;;
81330;SDS011;70793;53.076;8.822;2023-08-30T10:38:34;3.05;;;2.15;;
81330;SDS011;70793;53.076;8.822;2023-08-30T10:41:05;2.22;;;1.95;;
81330;SDS011;70793;53.076;8.822;2023-08-30T10:43:33;2.40;;;1.92;;
81330;SDS011;70793;53.076;8.822;2023-08-30T10:46:03;1.92;;;1.63;;
81330;SDS011;70793;53.076;8.822;2023-08-30T10:48:36;2.72;;;1.60;;
81330;SDS011;70793;53.076;8.822;2023-08-30T10:51:02;2.72;;;1.63;;
81330;SDS011;70793;53.076;8.822;2023-08-30T10:53:30;2.45;;;1.63;;
81330;SDS011;70793;53.076;8.822;2023-08-30T10:56:11;3.45;;;2.15;;
81330;SDS011;70793;53.076;8.822;2023-08-30T10:58:43;3.42;;;2.33;;
81330;SDS011;70793;53.076;8.822;2023-08-30T11:01:09;2.92;;;2.13;;
81330;SDS011;70793;53.076;8.822;2023-08-30T11:03:40;3.38;;;2.17;;
81330;SDS011;70793;53.076;8.822;2023-08-30T11:06:06;3.00;;;2.13;;
81330;SDS011;70793;53.076;8.822;2023-08-30T11:08:32;3.05;;;2.50;;
81330;SDS011;70793;53.076;8.822;2023-08-30T11:11:04;2.95;;;2.28;;
81330;SDS011;70793;53.076;8.822;2023-08-30T11:13:30;3.47;;;2.80;;
81330;SDS011;70793;53.076;8.822;2023-08-30T11:16:00;2.38;;;2.15;;
81330;SDS011;70793;53.076;8.822;2023-08-30T11:18:38;1.80;;;1.58;;
81330;SDS011;70793;53.076;8.822;2023-08-30T11:21:04;5.35;;;2.40;;
81330;SDS011;70793;53.076;8.822;2023-08-30T11:23:31;2.53;;;1.85;;
81330;SDS011;70793;53.076;8.822;2023-08-30T11:25:56;2.40;;;2.00;;
81330;SDS011;70793;53.076;8.822;2023-08-30T11:28:25;2.28;;;1.85;;
81330;SDS011;70793;53.076;8.822;2023-08-30T11:30:54;3.03;;;1.50;;
81330;SDS011;70793;53.076;8.822;2023-08-30T11:33:20;2.58;;;2.10;;
81330;SDS011;70793;53.076;8.822;2023-08-30T11:35:46;2.05;;;1.67;;
81330;SDS011;70793;53.076;8.822;2023-08-30T11:38:14;2.80;;;1.65;;
81330;SDS011;70793;53.076;8.822;2023-08-30T11:40:40;2.00;;;1.70;;
81330;SDS011;70793;53.076;8.822;2023-08-30T11:43:06;1.92;;;1.50;;
81330;SDS011;70793;53.076;8.822;2023-08-30T11:45:32;2.72;;;2.25;;
81330;SDS011;70793;53.076;8.822;2023-08-30T11:47:59;2.38;;;2.10;;
81330;SDS011;70793;53.076;8.822;2023-08-30T11:50:24;1.85;;;1.65;;
81330;SDS011;70793;53.076;8.822;2023-08-30T11:52:50;1.92;;;1.73;;
81330;SDS011;70793;53.076;8.822;2023-08-30T11:55:16;1.70;;;1.50;;
81330;SDS011;70793;53.076;8.822;2023-08-30T11:57:45;1.92;;;1.60;;
81330;SDS011;70793;53.076;8.822;2023-08-30T12:00:13;1.70;;;1.60;;
81330;SDS011;70793;53.076;8.822;2023-08-30T12:02:39;2.22;;;1.40;;
81330;SDS011;70793;53.076;8.822;2023-08-30T12:05:05;1.88;;;1.65;;
81330;SDS011;70793;53.076;8.822;2023-08-30T12:07:31;1.77;;;1.50;;
81330;SDS011;70793;53.076;8.822;2023-08-30T12:10:09;1.90;;;1.50;;
81330;SDS011;70793;53.076;8.822;2023-08-30T12:12:35;2.30;;;1.33;;
81330;SDS011;70793;53.076;8.822;2023-08-30T12:15:04;1.85;;;1.55;;
81330;SDS011;70793;53.076;8.822;2023-08-30T12:17:34;3.80;;;3.00;;
81330;SDS011;70793;53.076;8.822;2023-08-30T12:20:00;2.53;;;1.67;;
81330;SDS011;70793;53.076;8.822;2023-08-30T12:25:21;2.35;;;1.85;;
81330;SDS011;70793;53.076;8.822;2023-08-30T12:27:48;1.92;;;1.60;;
81330;SDS011;70793;53.076;8.822;2023-08-30T12:30:14;2.92;;;1.60;;
81330;SDS011;70793;53.076;8.822;2023-08-30T12:32:41;2.08;;;1.88;;
81330;SDS011;70793;53.076;8.822;2023-08-30T12:35:07;2.00;;;1.50;;
81330;SDS011;70793;53.076;8.822;2023-08-30T12:37:32;1.35;;;1.15;;
81330;SDS011;70793;53.076;8.822;2023-08-30T12:39:58;1.90;;;1.42;;
81330;SDS011;70793;53.076;8.822;2023-08-30T12:42:23;2.20;;;1.50;;
81330;SDS011;70793;53.076;8.822;2023-08-30T12:44:48;1.37;;;1.27;;
81330;SDS011;70793;53.076;8.822;2023-08-30T12:47:14;1.50;;;1.10;;
81330;SDS011;70793;53.076;8.822;2023-08-30T12:49:39;1.73;;;1.37;;
81330;SDS011;70793;53.076;8.822;2023-08-30T12:52:05;2.00;;;1.52;;
81330;SDS011;70793;53.076;8.822;2023-08-30T12:54:31;1.48;;;1.20;;
81330;SDS011;70793;53.076;8.822;2023-08-30T12:56:56;1.35;;;1.25;;
81330;SDS011;70793;53.076;8.822;2023-08-30T12:59:21;1.60;;;1.27;;
81330;SDS011;70793;53.076;8.822;2023-08-30T13:01:47;2.00;;;1.17;;
81330;SDS011;70793;53.076;8.822;2023-08-30T13:04:12;1.45;;;1.23;;
81330;SDS011;70793;53.076;8.822;2023-08-30T13:06:38;2.20;;;1.70;;
81330;SDS011;70793;53.076;8.822;2023-08-30T13:09:03;2.10;;;1.40;;
81330;SDS011;70793;53.076;8.822;2023-08-30T13:11:28;2.43;;;1.70;;
81330;SDS011;70793;53.076;8.822;2023-08-30T13:13:55;1.25;;;1.15;;
81330;SDS011;70793;53.076;8.822;2023-08-30T13:16:23;1.60;;;1.50;;
81330;SDS011;70793;53.076;8.822;2023-08-30T13:18:48;1.83;;;1.35;;
81330;SDS011;70793;53.076;8.822;2023-08-30T13:21:14;2.10;;;1.37;;
81330;SDS011;70793;53.076;8.822;2023-08-30T13:23:39;1.63;;;1.40;;
81330;SDS011;70793;53.076;8.822;2023-08-30T13:26:04;1.57;;;1.30;;
81330;SDS011;70793;53.076;8.822;2023-08-30T13:28:30;1.97;;;1.63;;
81330;SDS011;70793;53.076;8.822;2023-08-30T13:30:55;2.05;;;1.73;;
81330;SDS011;70793;53.076;8.822;2023-08-30T13:33:21;2.22;;;1.75;;
81330;SDS011;70793;53.076;8.822;2023-08-30T13:35:49;2.73;;;1.43;;
81330;SDS011;70793;53.076;8.822;2023-08-30T13:38:18;1.88;;;1.40;;
81330;SDS011;70793;53.076;8.822;2023-08-30T13:40:44;2.00;;;1.60;;
81330;SDS011;70793;53.076;8.822;2023-08-30T13:43:10;1.58;;;1.42;;
81330;SDS011;70793;53.076;8.822;2023-08-30T13:45:35;1.45;;;1.33;;
81330;SDS011;70793;53.076;8.822;2023-08-30T13:48:01;1.83;;;1.40;;
81330;SDS011;70793;53.076;8.822;2023-08-30T13:50:27;1.85;;;1.67;;
81330;SDS011;70793;53.076;8.822;2023-08-30T13:52:55;2.22;;;1.58;;
81330;SDS011;70793;53.076;8.822;2023-08-30T13:55:21;1.88;;;1.67;;
81330;SDS011;70793;53.076;8.822;2023-08-30T13:57:46;1.92;;;1.70;;
81330;SDS011;70793;53.076;8.822;2023-08-30T14:00:12;1.87;;;1.60;;
81330;SDS011;70793;53.076;8.822;2023-08-30T14:02:38;1.23;;;1.13;;
81330;SDS011;70793;53.076;8.822;2023-08-30T14:05:04;2.42;;;1.58;;
81330;SDS011;70793;53.076;8.822;2023-08-30T14:07:29;1.75;;;1.25;;
81330;SDS011;70793;53.076;8.822;2023-08-30T14:09:55;1.48;;;1.35;;
81330;SDS011;70793;53.076;8.822;2023-08-30T14:12:20;2.30;;;1.90;;
81330;SDS011;70793;53.076;8.822;2023-08-30T14:14:46;3.28;;;1.63;;
81330;SDS011;70793;53.076;8.822;2023-08-30T14:17:11;2.20;;;1.88;;
81330;SDS011;70793;53.076;8.822;2023-08-30T14:19:37;2.03;;;1.83;;
81330;SDS011;70793;53.076;8.822;2023-08-30T14:22:02;1.75;;;1.50;;
81330;SDS011;70793;53.076;8.822;2023-08-30T14:24:30;3.65;;;1.55;;
81330;SDS011;70793;53.076;8.822;2023-08-30T14:26:56;1.88;;;1.67;;
81330;SDS011;70793;53.076;8.822;2023-08-30T14:29:21;1.90;;;1.55;;
81330;SDS011;70793;53.076;8.822;2023-08-30T14:31:47;2.42;;;1.45;;
81330;SDS011;70793;53.076;8.822;2023-08-30T14:34:13;2.15;;;1.80;;
81330;SDS011;70793;53.076;8.822;2023-08-30T14:36:38;2.40;;;1.85;;
81330;SDS011;70793;53.076;8.822;2023-08-30T14:39:05;3.03;;;2.42;;
81330;SDS011;70793;53.076;8.822;2023-08-30T14:41:31;3.38;;;2.65;;
81330;SDS011;70793;53.076;8.822;2023-08-30T14:43:57;3.50;;;2.50;;
81330;SDS011;70793;53.076;8.822;2023-08-30T14:46:22;3.97;;;3.50;;
81330;SDS011;70793;53.076;8.822;2023-08-30T14:48:48;3.60;;;2.58;;
81330;SDS011;70793;53.076;8.822;2023-08-30T14:51:13;3.08;;;2.53;;
81330;SDS011;70793;53.076;8.822;2023-08-30T14:53:38;3.63;;;2.17;;
81330;SDS011;70793;53.076;8.822;2023-08-30T14:56:04;2.23;;;2.00;;
81330;SDS011;70793;53.076;8.822;2023-08-30T14:58:32;2.72;;;2.20;;
81330;SDS011;70793;53.076;8.822;2023-08-30T15:00:59;2.42;;;2.00;;
81330;SDS011;70793;53.076;8.822;2023-08-30T15:03:25;2.25;;;2.05;;
81330;SDS011;70793;53.076;8.822;2023-08-30T15:05:53;2.67;;;2.08;;
81330;SDS011;70793;53.076;8.822;2023-08-30T15:08:20;1.85;;;1.60;;
81330;SDS011;70793;53.076;8.822;2023-08-30T15:10:45;2.47;;;2.00;;
81330;SDS011;70793;53.076;8.822;2023-08-30T15:13:10;2.88;;;2.33;;
81330;SDS011;70793;53.076;8.822;2023-08-30T15:15:36;2.77;;;2.27;;
81330;SDS011;70793;53.076;8.822;2023-08-30T15:18:01;2.60;;;2.40;;
81330;SDS011;70793;53.076;8.822;2023-08-30T15:20:27;2.85;;;2.03;;
81330;SDS011;70793;53.076;8.822;2023-08-30T15:22:52;2.72;;;2.40;;
81330;SDS011;70793;53.076;8.822;2023-08-30T15:25:18;3.00;;;2.67;;
81330;SDS011;70793;53.076;8.822;2023-08-30T15:27:44;2.35;;;2.15;;
81330;SDS011;70793;53.076;8.822;2023-08-30T15:30:10;2.42;;;2.15;;
81330;SDS011;70793;53.076;8.822;2023-08-30T15:32:37;2.22;;;1.88;;
81330;SDS011;70793;53.076;8.822;2023-08-30T15:35:02;2.58;;;2.38;;
81330;SDS011;70793;53.076;8.822;2023-08-30T15:37:28;4.40;;;2.58;;
81330;SDS011;70793;53.076;8.822;2023-08-30T15:39:58;2.17;;;1.92;;
81330;SDS011;70793;53.076;8.822;2023-08-30T15:42:28;2.75;;;2.45;;
81330;SDS011;70793;53.076;8.822;2023-08-30T15:44:54;2.25;;;1.95;;
81330;SDS011;70793;53.076;8.822;2023-08-30T15:47:19;2.27;;;1.80;;
81330;SDS011;70793;53.076;8.822;2023-08-30T15:49:45;2.20;;;1.98;;
81330;SDS011;70793;53.076;8.822;2023-08-30T15:52:10;1.52;;;1.42;;
81330;SDS011;70793;53.076;8.822;2023-08-30T15:54:35;2.83;;;2.53;;
81330;SDS011;70793;53.076;8.822;2023-08-30T15:57:01;2.40;;;2.05;;
81330;SDS011;70793;53.076;8.822;2023-08-30T15:59:26;1.83;;;1.70;;
81330;SDS011;70793;53.076;8.822;2023-08-30T16:01:52;1.70;;;1.60;;
81330;SDS011;70793;53.076;8.822;2023-08-30T16:04:17;1.80;;;1.45;;
81330;SDS011;70793;53.076;8.822;2023-08-30T16:06:42;1.73;;;1.33;;
81330;SDS011;70793;53.076;8.822;2023-08-30T16:09:10;1.80;;;1.63;;
81330;SDS011;70793;53.076;8.822;2023-08-30T16:11:36;1.63;;;1.52;;
81330;SDS011;70793;53.076;8.822;2023-08-30T16:14:02;1.70;;;1.52;;
81330;SDS011;70793;53.076;8.822;2023-08-30T16:16:27;1.92;;;1.60;;
81330;SDS011;70793;53.076;8.822;2023-08-30T16:18:53;2.13;;;1.35;;
81330;SDS011;70793;53.076;8.822;2023-08-30T16:21:18;1.52;;;1.40;;
81330;SDS011;70793;53.076;8.822;2023-08-30T16:23:44;1.92;;;1.65;;
81330;SDS011;70793;53.076;8.822;2023-08-30T16:26:09;1.52;;;1.42;;
81330;SDS011;70793;53.076;8.822;2023-08-30T16:28:34;1.40;;;1.30;;
81330;SDS011;70793;53.076;8.822;2023-08-30T16:31:03;1.85;;;1.60;;
81330;SDS011;70793;53.076;8.822;2023-08-30T16:33:30;1.50;;;1.20;;
81330;SDS011;70793;53.076;8.822;2023-08-30T16:35:55;1.50;;;1.40;;
81330;SDS011;70793;53.076;8.822;2023-08-30T16:38:22;1.52;;;1.42;;
81330;SDS011;70793;53.076;8.822;2023-08-30T16:40:48;1.35;;;1.23;;
81330;SDS011;70793;53.076;8.822;2023-08-30T16:43:13;1.50;;;1.40;;
81330;SDS011;70793;53.076;8.822;2023-08-30T16:45:38;1.52;;;1.20;;
81330;SDS011;70793;53.076;8.822;2023-08-30T16:48:04;1.27;;;0.90;;
81330;SDS011;70793;53.076;8.822;2023-08-30T16:50:31;1.30;;;1.17;;
81330;SDS011;70793;53.076;8.822;2023-08-30T16:52:57;1.27;;;1.10;;
81330;SDS011;70793;53.076;8.822;2023-08-30T16:55:22;1.60;;;1.17;;
81330;SDS011;70793;53.076;8.822;2023-08-30T16:57:48;1.20;;;1.10;;
81330;SDS011;70793;53.076;8.822;2023-08-30T17:00:14;1.52;;;1.35;;
81330;SDS011;70793;53.076;8.822;2023-08-30T17:02:40;1.90;;;1.70;;
81330;SDS011;70793;53.076;8.822;2023-08-30T17:05:06;1.50;;;1.40;;
81330;SDS011;70793;53.076;8.822;2023-08-30T17:07:32;1.42;;;1.33;;
81330;SDS011;70793;53.076;8.822;2023-08-30T17:09:57;1.42;;;1.10;;
81330;SDS011;70793;53.076;8.822;2023-08-30T17:12:23;1.33;;;1.23;;
81330;SDS011;70793;53.076;8.822;2023-08-30T17:14:48;1.63;;;1.42;;
81330;SDS011;70793;53.076;8.822;2023-08-30T17:17:14;1.52;;;1.42;;
81330;SDS011;70793;53.076;8.822;2023-08-30T17:19:40;1.85;;;1.63;;
81330;SDS011;70793;53.076;8.822;2023-08-30T17:22:05;1.88;;;1.63;;
81330;SDS011;70793;53.076;8.822;2023-08-30T17:24:31;2.30;;;1.20;;
81330;SDS011;70793;53.076;8.822;2023-08-30T17:26:58;1.98;;;1.40;;
81330;SDS011;70793;53.076;8.822;2023-08-30T17:29:24;1.63;;;1.27;;
81330;SDS011;70793;53.076;8.822;2023-08-30T17:31:50;1.63;;;1.50;;
81330;SDS011;70793;53.076;8.822;2023-08-30T17:34:15;1.17;;;1.08;;
81330;SDS011;70793;53.076;8.822;2023-08-30T17:36:40;1.55;;;1.45;;
81330;SDS011;70793;53.076;8.822;2023-08-30T17:39:12;1.50;;;1.20;;
81330;SDS011;70793;53.076;8.822;2023-08-30T17:41:37;2.05;;;1.50;;
81330;SDS011;70793;53.076;8.822;2023-08-30T17:44:03;2.10;;;1.42;;
81330;SDS011;70793;53.076;8.822;2023-08-30T17:46:28;1.95;;;1.80;;
81330;SDS011;70793;53.076;8.822;2023-08-30T17:48:56;1.63;;;1.52;;
81330;SDS011;70793;53.076;8.822;2023-08-30T17:51:21;1.67;;;1.57;;
81330;SDS011;70793;53.076;8.822;2023-08-30T17:53:46;1.50;;;1.40;;
81330;SDS011;70793;53.076;8.822;2023-08-30T17:56:13;1.58;;;1.33;;
81330;SDS011;70793;53.076;8.822;2023-08-30T17:58:42;2.92;;;2.72;;
81330;SDS011;70793;53.076;8.822;2023-08-30T18:01:08;1.60;;;1.42;;
81330;SDS011;70793;53.076;8.822;2023-08-30T18:03:34;1.75;;;1.63;;
81330;SDS011;70793;53.076;8.822;2023-08-30T18:06:00;2.30;;;2.10;;
81330;SDS011;70793;53.076;8.822;2023-08-30T18:08:26;2.30;;;1.60;;
81330;SDS011;70793;53.076;8.822;2023-08-30T18:10:51;1.88;;;1.67;;
81330;SDS011;70793;53.076;8.822;2023-08-30T18:13:17;2.05;;;1.88;;
81330;SDS011;70793;53.076;8.822;2023-08-30T18:15:42;1.88;;;1.60;;
81330;SDS011;70793;53.076;8.822;2023-08-30T18:18:08;2.67;;;1.80;;